createdAt,value
2023-11-13T00:00:07.684Z,3.10
2023-11-13T00:02:35.901Z,2.90
2023-11-13T00:05:05.467Z,3.40
2023-11-13T00:07:33.584Z,2.43
2023-11-13T00:10:01.827Z,2.40
2023-11-13T00:12:29.866Z,2.37
2023-11-13T00:14:57.857Z,2.13
2023-11-13T00:17:27.315Z,2.23
2023-11-13T00:19:55.560Z,2.63
2023-11-13T00:22:23.776Z,2.27
2023-11-13T00:24:51.850Z,2.20
2023-11-13T00:27:20.292Z,2.13
2023-11-13T00:29:49.057Z,2.40
2023-11-13T00:32:17.137Z,2.63
2023-11-13T00:34:46.538Z,2.30
2023-11-13T00:37:15.389Z,2.40
2023-11-13T00:39:43.754Z,3.20
2023-11-13T00:42:12.346Z,3.40
2023-11-13T00:44:40.225Z,4.27
2023-11-13T00:47:08.310Z,4.33
2023-11-13T00:49:36.618Z,4.30
2023-11-13T00:52:06.690Z,6.10
2023-11-13T00:54:35.701Z,6.23
2023-11-13T00:57:03.829Z,5.33
2023-11-13T00:59:31.857Z,5.83
2023-11-13T01:02:02.389Z,6.50
2023-11-13T01:04:30.535Z,5.73
2023-11-13T01:06:58.914Z,6.20
2023-11-13T01:09:28.418Z,6.47
2023-11-13T01:11:56.395Z,6.70
2023-11-13T01:14:25.261Z,7.13
2023-11-13T01:16:53.571Z,6.60
2023-11-13T01:19:22.244Z,5.57
2023-11-13T01:21:50.304Z,7.17
2023-11-13T01:24:18.366Z,8.10
2023-11-13T01:26:47.902Z,7.67
2023-11-13T01:29:16.052Z,8.47
2023-11-13T01:31:44.088Z,7.57
2023-11-13T01:34:13.939Z,8.53
2023-11-13T01:36:42.366Z,8.00
2023-11-13T01:39:10.684Z,8.97
2023-11-13T01:41:40.300Z,8.20
2023-11-13T01:44:09.790Z,7.93
2023-11-13T01:46:38.117Z,7.17
2023-11-13T01:49:07.348Z,7.67
2023-11-13T01:51:37.065Z,8.80
2023-11-13T01:54:05.613Z,7.63
2023-11-13T01:56:35.287Z,9.13
2023-11-13T01:59:03.516Z,8.47
2023-11-13T02:01:33.464Z,8.23
2023-11-13T02:04:01.768Z,8.57
2023-11-13T02:06:29.912Z,8.07
2023-11-13T02:08:57.988Z,8.30
2023-11-13T02:11:28.073Z,8.83
2023-11-13T02:13:56.640Z,8.90
2023-11-13T02:16:26.109Z,9.00
2023-11-13T02:18:55.648Z,10.43
2023-11-13T02:21:23.764Z,8.33
2023-11-13T02:23:54.125Z,10.13
2023-11-13T02:26:23.893Z,8.20
2023-11-13T02:28:52.146Z,8.97
2023-11-13T02:31:20.232Z,7.63
2023-11-13T02:33:48.311Z,7.83
2023-11-13T02:36:16.317Z,8.47
2023-11-13T02:38:44.224Z,7.93
2023-11-13T02:41:14.882Z,10.27
2023-11-13T02:43:42.968Z,8.17
2023-11-13T02:46:10.992Z,9.90
2023-11-13T02:48:39.888Z,9.67
2023-11-13T02:51:08.117Z,9.70
2023-11-13T02:53:35.999Z,9.50
2023-11-13T02:56:04.050Z,8.07
2023-11-13T02:58:34.335Z,10.07
2023-11-13T03:01:02.526Z,8.30
2023-11-13T03:03:31.171Z,8.00
2023-11-13T03:05:59.108Z,9.70
2023-11-13T03:08:27.165Z,9.83
2023-11-13T03:10:55.333Z,8.80
2023-11-13T03:13:24.458Z,9.20
2023-11-13T03:15:53.803Z,7.90
2023-11-13T03:18:22.176Z,9.73
2023-11-13T03:20:50.289Z,9.57
2023-11-13T03:23:18.444Z,9.10
2023-11-13T03:25:46.434Z,9.83
2023-11-13T03:28:14.669Z,9.97
2023-11-13T03:30:42.792Z,9.40
2023-11-13T03:33:12.542Z,10.43
2023-11-13T03:35:40.667Z,8.80
2023-11-13T03:38:08.637Z,10.50
2023-11-13T03:40:36.588Z,9.43
2023-11-13T03:43:05.285Z,8.03
2023-11-13T03:45:33.615Z,9.53
2023-11-13T03:48:01.691Z,9.50
2023-11-13T03:50:31.093Z,8.40
2023-11-13T03:52:59.284Z,10.37
2023-11-13T03:55:27.880Z,9.83
2023-11-13T03:57:55.880Z,9.50
2023-11-13T04:00:24.364Z,10.20
2023-11-13T04:02:52.529Z,10.27
2023-11-13T04:05:20.592Z,8.93
2023-11-13T04:07:49.987Z,9.20
2023-11-13T04:10:18.910Z,10.07
2023-11-13T04:12:47.083Z,10.47
2023-11-13T04:15:15.274Z,10.07
2023-11-13T04:17:43.255Z,8.53
2023-11-13T04:20:14.215Z,8.03
2023-11-13T04:22:43.064Z,7.77
2023-11-13T04:25:13.220Z,7.47
2023-11-13T04:27:42.158Z,7.93
2023-11-13T04:30:10.903Z,7.07
2023-11-13T04:32:38.962Z,8.10
2023-11-13T04:35:07.949Z,7.70
2023-11-13T04:37:36.095Z,6.03
2023-11-13T04:40:06.242Z,7.70
2023-11-13T04:42:36.559Z,5.83
2023-11-13T04:45:05.169Z,6.60
2023-11-13T04:47:33.208Z,6.90
2023-11-13T04:50:01.840Z,7.97
2023-11-13T04:52:30.006Z,6.47
2023-11-13T04:54:58.143Z,7.10
2023-11-13T04:57:26.153Z,6.77
2023-11-13T04:59:55.386Z,7.40
2023-11-13T05:02:23.987Z,7.10
2023-11-13T05:04:51.982Z,8.37
2023-11-13T05:07:20.133Z,7.43
2023-11-13T05:09:48.742Z,7.03
2023-11-13T05:12:17.636Z,7.73
2023-11-13T05:14:45.636Z,7.90
2023-11-13T05:17:15.371Z,7.20
2023-11-13T05:19:43.403Z,7.50
2023-11-13T05:22:11.892Z,6.57
2023-11-13T05:24:40.526Z,6.17
2023-11-13T05:27:08.549Z,8.40
2023-11-13T05:29:36.585Z,6.93
2023-11-13T05:32:04.659Z,6.67
2023-11-13T05:34:34.273Z,7.57
2023-11-13T05:37:02.456Z,7.00
2023-11-13T05:39:31.238Z,7.83
2023-11-13T05:41:59.232Z,7.90
2023-11-13T05:44:27.341Z,6.63
2023-11-13T05:46:55.797Z,7.07
2023-11-13T05:49:24.159Z,6.70
2023-11-13T05:51:53.737Z,8.13
2023-11-13T05:54:21.809Z,6.40
2023-11-13T05:56:49.866Z,8.47
2023-11-13T05:59:17.890Z,6.67
2023-11-13T18:56:24.061Z,0.57
2023-11-13T18:58:51.887Z,0.55
2023-11-13T19:01:20.652Z,0.40
2023-11-13T19:03:49.480Z,0.47
2023-11-13T19:06:18.348Z,0.47
2023-11-13T19:08:46.768Z,0.63
2023-11-13T19:11:15.660Z,0.80
2023-11-13T19:13:46.622Z,0.98
2023-11-13T19:16:14.588Z,1.20
2023-11-13T19:18:42.525Z,0.98
2023-11-13T19:21:10.961Z,0.60
2023-11-13T19:23:39.149Z,0.65
2023-11-13T19:26:07.897Z,0.40
2023-11-13T19:28:36.184Z,0.80
2023-11-13T19:31:05.661Z,0.60
2023-11-13T19:33:33.604Z,0.88
2023-11-13T19:36:01.553Z,1.25
2023-11-13T19:38:29.510Z,0.77
2023-11-13T19:40:57.486Z,0.77
2023-11-13T19:43:25.409Z,1.05
2023-11-13T19:45:53.812Z,1.13
2023-11-13T19:48:25.025Z,1.45
2023-11-13T19:50:53.973Z,1.90
2023-11-13T19:53:21.862Z,1.00
2023-11-13T19:55:49.497Z,2.00
2023-11-13T19:58:17.448Z,1.25
2023-11-13T20:00:46.117Z,1.60
2023-11-13T20:03:14.195Z,1.70
2023-11-13T20:05:44.400Z,1.70
2023-11-13T20:08:12.616Z,1.52
2023-11-13T20:10:42.384Z,1.55
2023-11-13T20:13:11.101Z,1.75
2023-11-13T20:15:39.206Z,1.65
2023-11-13T20:18:07.744Z,1.85
2023-11-13T20:20:36.391Z,2.28
2023-11-13T20:23:05.725Z,1.33
2023-11-13T20:25:34.804Z,1.50
2023-11-13T20:28:03.081Z,0.93
2023-11-13T20:30:31.288Z,1.17
2023-11-13T20:32:59.195Z,1.20
2023-11-13T20:35:28.056Z,1.23
2023-11-13T20:37:56.457Z,1.73
2023-11-13T20:40:26.482Z,1.60
2023-11-13T20:42:54.789Z,1.40
2023-11-13T20:45:23.139Z,1.52
2023-11-13T20:47:51.576Z,0.90
2023-11-13T20:50:19.804Z,1.05
2023-11-13T20:52:47.765Z,1.63
2023-11-13T20:55:17.617Z,1.58
2023-11-13T20:57:46.787Z,1.10
2023-11-13T21:00:16.950Z,2.45
2023-11-13T21:02:44.909Z,1.48
2023-11-13T21:05:13.489Z,1.65
2023-11-13T21:07:41.494Z,2.17
2023-11-13T21:10:11.066Z,2.07
2023-11-13T21:12:39.478Z,1.80
2023-11-13T21:15:09.994Z,1.17
2023-11-13T21:17:38.235Z,1.67
2023-11-13T21:20:10.816Z,1.70
2023-11-13T21:22:40.882Z,1.43
2023-11-13T21:25:10.448Z,1.55
2023-11-13T21:27:39.115Z,1.83
2023-11-13T21:30:10.175Z,1.50
2023-11-13T21:32:38.261Z,1.55
2023-11-13T21:35:07.974Z,1.63
2023-11-13T21:37:36.046Z,1.73
2023-11-13T21:40:05.669Z,1.70
2023-11-13T21:42:34.114Z,2.10
2023-11-13T21:45:01.995Z,1.85
2023-11-13T21:47:31.421Z,1.88
2023-11-13T21:49:59.272Z,1.63
2023-11-13T21:52:27.570Z,1.80
2023-11-13T21:54:55.411Z,1.88
2023-11-13T21:57:24.032Z,1.90
2023-11-13T21:59:51.893Z,1.02
2023-11-13T22:02:23.202Z,1.73
2023-11-13T22:04:52.664Z,1.27
2023-11-13T22:07:20.901Z,1.40
2023-11-13T22:09:48.747Z,1.30
2023-11-13T22:12:18.684Z,1.13
2023-11-13T22:14:47.246Z,1.25
2023-11-13T22:17:15.502Z,1.23
2023-11-13T22:19:43.866Z,1.20
2023-11-13T22:22:13.174Z,1.20
2023-11-13T22:24:41.046Z,1.65
2023-11-13T22:27:08.930Z,1.30
2023-11-13T22:29:36.957Z,1.67
2023-11-13T22:32:05.220Z,1.70
2023-11-13T22:34:34.002Z,1.20
2023-11-13T22:37:01.939Z,1.07
2023-11-13T22:39:31.105Z,1.10
2023-11-13T22:41:58.983Z,1.80
2023-11-13T22:44:26.873Z,1.37
2023-11-13T22:46:54.753Z,1.60
2023-11-13T22:49:22.706Z,1.27
2023-11-13T22:51:51.629Z,1.55
2023-11-13T22:54:19.506Z,1.27
2023-11-13T22:56:48.687Z,1.27
2023-11-13T22:59:17.233Z,1.47
2023-11-13T23:01:46.410Z,1.10
2023-11-13T23:04:14.758Z,1.30
2023-11-13T23:06:44.197Z,1.73
2023-11-13T23:09:12.218Z,1.27
2023-11-13T23:11:40.414Z,1.17
2023-11-13T23:14:09.722Z,1.33
2023-11-13T23:16:37.735Z,1.55
2023-11-13T23:19:05.898Z,1.25
2023-11-13T23:21:33.810Z,0.93
2023-11-13T23:24:01.721Z,1.10
2023-11-13T23:26:29.570Z,1.07
2023-11-13T23:28:57.627Z,1.87
2023-11-13T23:31:27.080Z,2.20
2023-11-13T23:33:55.082Z,1.60
2023-11-13T23:36:23.048Z,1.35
2023-11-13T23:38:51.069Z,1.40
2023-11-13T23:41:19.321Z,1.13
2023-11-13T23:43:47.247Z,1.30
2023-11-13T23:46:15.246Z,1.58
2023-11-13T23:48:44.521Z,1.57
2023-11-13T23:51:12.398Z,1.30
2023-11-13T23:53:40.267Z,1.40
2023-11-13T23:56:08.781Z,1.20
2023-11-13T23:58:37.094Z,1.67
